Time;durP1;ratioP1;P1;durP2;ratioP2;P2;SDS_P1;SDS_P2;PMS_P1;PMS_P2;Temp;Humidity;BMP_temperature;BMP_pressure;BME280_temperature;BME280_humidity;BME280_pressure;Samples;Min_cycle;Max_cycle;Signal;HPM_P1;HPM_P2
2022/03/15 00:01:23;;;;;;;24.55;12.32;;;3.20;99.90;;;;;;5096893;28;20032;-65
2022/03/15 00:03:49;;;;;;;31.88;12.98;;;3.20;99.90;;;;;;5098676;28;20032;-66
2022/03/15 00:06:16;;;;;;;26.63;12.98;;;3.30;99.90;;;;;;5077258;28;20048;-66
2022/03/15 00:08:42;;;;;;;24.77;13.07;;;3.40;99.90;;;;;;5091727;28;20044;-66
2022/03/15 00:11:09;;;;;;;22.13;11.80;;;3.40;99.90;;;;;;5096863;28;20505;-65
2022/03/15 00:13:38;;;;;;;24.10;12.65;;;3.40;99.90;;;;;;5095263;28;20053;-66
2022/03/15 00:16:06;;;;;;;22.98;12.63;;;3.40;99.90;;;;;;5093234;28;20035;-65
2022/03/15 00:18:32;;;;;;;24.05;11.88;;;3.40;99.90;;;;;;5100210;28;20071;-65
2022/03/15 00:20:59;;;;;;;23.45;12.27;;;3.40;99.90;;;;;;5095781;28;20032;-65
2022/03/15 00:23:25;;;;;;;24.58;11.82;;;3.40;99.90;;;;;;5091165;28;20032;-66
2022/03/15 00:25:52;;;;;;;22.33;12.85;;;3.50;99.90;;;;;;5087597;28;20037;-66
2022/03/15 00:28:19;;;;;;;19.13;10.80;;;3.50;99.90;;;;;;5082262;28;20071;-65
2022/03/15 00:30:45;;;;;;;19.63;11.23;;;3.50;99.90;;;;;;5106743;28;20060;-65
2022/03/15 00:33:12;;;;;;;23.67;10.73;;;3.40;99.90;;;;;;5100271;28;20985;-68
2022/03/15 00:35:38;;;;;;;25.23;10.90;;;3.40;99.90;;;;;;5099311;28;20024;-68
2022/03/15 00:38:03;;;;;;;26.95;12.07;;;3.50;99.90;;;;;;5088757;28;20027;-68
2022/03/15 00:40:29;;;;;;;27.45;13.27;;;3.60;99.90;;;;;;5092286;28;20104;-67
2022/03/15 00:42:55;;;;;;;22.20;12.43;;;3.60;99.90;;;;;;5084247;28;20027;-68
2022/03/15 00:45:23;;;;;;;30.73;13.32;;;3.60;99.90;;;;;;5091898;28;20043;-67
2022/03/15 00:47:50;;;;;;;26.05;13.40;;;3.50;99.90;;;;;;5092517;28;20123;-68
2022/03/15 00:50:16;;;;;;;27.73;12.57;;;3.50;99.90;;;;;;5095496;28;20062;-68
2022/03/15 00:52:41;;;;;;;22.88;12.68;;;3.40;99.90;;;;;;5095695;28;20046;-68
2022/03/15 00:55:08;;;;;;;19.70;12.00;;;3.30;99.90;;;;;;5095927;28;20036;-65
2022/03/15 00:57:34;;;;;;;23.77;12.20;;;3.20;99.90;;;;;;5100639;28;20094;-65
2022/03/15 01:00:05;;;;;;;22.63;12.18;;;3.20;99.90;;;;;;5085854;28;20017;-65
2022/03/15 01:02:30;;;;;;;22.08;13.15;;;3.20;99.90;;;;;;5095076;28;20016;-65
2022/03/15 01:04:56;;;;;;;27.23;14.20;;;3.20;99.90;;;;;;5110459;28;20093;-65
2022/03/15 01:07:22;;;;;;;28.33;15.68;;;3.30;99.90;;;;;;5099676;28;20172;-65
2022/03/15 01:09:48;;;;;;;24.33;13.77;;;3.30;99.90;;;;;;5104264;28;20036;-65
2022/03/15 01:12:14;;;;;;;25.67;13.35;;;3.30;99.90;;;;;;5102090;28;20124;-65
2022/03/15 01:14:39;;;;;;;24.35;12.63;;;3.30;99.90;;;;;;5097725;28;20482;-65
2022/03/15 01:17:05;;;;;;;22.60;12.40;;;3.40;99.90;;;;;;5074997;28;20020;-65
2022/03/15 01:19:31;;;;;;;25.52;14.15;;;3.40;99.90;;;;;;5087877;28;20050;-65
2022/03/15 01:21:58;;;;;;;24.77;13.23;;;3.50;99.90;;;;;;5090686;28;20065;-65
2022/03/15 01:24:24;;;;;;;28.10;13.75;;;3.50;99.90;;;;;;5092780;28;20043;-66
2022/03/15 01:26:51;;;;;;;25.38;14.60;;;3.50;99.90;;;;;;5099089;28;20024;-65
2022/03/15 01:29:19;;;;;;;28.10;15.35;;;3.60;99.90;;;;;;5093930;28;20040;-65
2022/03/15 01:31:45;;;;;;;28.52;14.50;;;3.70;99.90;;;;;;5095765;28;20028;-65
2022/03/15 01:34:10;;;;;;;27.60;14.93;;;3.60;99.90;;;;;;5093438;28;20161;-65
2022/03/15 01:36:36;;;;;;;29.02;15.50;;;3.70;99.90;;;;;;5093637;28;20016;-66
2022/03/15 01:39:04;;;;;;;28.60;16.77;;;3.70;99.90;;;;;;5094079;28;20024;-66
2022/03/15 01:41:31;;;;;;;26.92;15.20;;;3.70;99.90;;;;;;5092286;28;20058;-65
2022/03/15 01:43:56;;;;;;;27.73;14.73;;;3.70;99.90;;;;;;5096941;28;20097;-65
2022/03/15 01:46:22;;;;;;;27.63;14.80;;;3.70;99.90;;;;;;5090199;28;20580;-65
2022/03/15 01:48:47;;;;;;;29.63;15.60;;;3.70;99.90;;;;;;5093988;28;20513;-65
2022/03/15 01:51:15;;;;;;;26.90;15.57;;;3.70;99.90;;;;;;5097991;28;20020;-65
2022/03/15 01:53:41;;;;;;;26.10;14.68;;;3.80;99.90;;;;;;5099486;28;20021;-65
2022/03/15 01:56:07;;;;;;;28.35;15.07;;;3.80;99.90;;;;;;5095657;28;20020;-65
2022/03/15 01:58:33;;;;;;;24.95;13.40;;;3.80;99.90;;;;;;5091583;28;20029;-65
2022/03/15 02:00:59;;;;;;;26.83;14.18;;;3.80;99.90;;;;;;5089902;28;20028;-65
2022/03/15 02:03:25;;;;;;;23.45;13.60;;;3.90;99.90;;;;;;5096618;28;20451;-66
2022/03/15 02:05:51;;;;;;;27.27;14.68;;;3.90;99.90;;;;;;5100917;28;20028;-65
2022/03/15 02:08:17;;;;;;;26.35;13.95;;;3.90;99.90;;;;;;5070199;28;20103;-65
2022/03/15 02:10:43;;;;;;;26.30;13.65;;;3.90;99.90;;;;;;5097486;28;20030;-65
2022/03/15 02:13:10;;;;;;;26.65;13.65;;;3.90;99.90;;;;;;5111867;27;20150;-65
2022/03/15 02:15:36;;;;;;;22.58;13.15;;;3.90;99.90;;;;;;5095863;28;20149;-66
2022/03/15 02:18:03;;;;;;;22.02;11.10;;;3.90;99.90;;;;;;5093164;28;20103;-66
2022/03/15 02:20:30;;;;;;;25.85;12.02;;;3.90;99.90;;;;;;5095983;28;20050;-65
2022/03/15 02:22:57;;;;;;;21.20;11.43;;;3.90;99.90;;;;;;5093219;28;20020;-65
2022/03/15 02:25:25;;;;;;;22.98;12.60;;;3.80;99.90;;;;;;5073648;28;20096;-66
2022/03/15 02:27:52;;;;;;;21.23;12.00;;;3.70;99.90;;;;;;5087933;28;20428;-65
2022/03/15 02:30:18;;;;;;;25.00;11.60;;;3.70;99.90;;;;;;5084489;28;20033;-66
2022/03/15 02:32:47;;;;;;;24.25;12.20;;;3.60;99.90;;;;;;5090708;28;20058;-66
2022/03/15 02:35:15;;;;;;;21.38;11.40;;;3.60;99.90;;;;;;5091906;28;20133;-66
2022/03/15 02:37:40;;;;;;;20.63;11.82;;;3.50;99.90;;;;;;5092215;28;20042;-66
2022/03/15 02:40:07;;;;;;;19.95;11.93;;;3.50;99.90;;;;;;5096062;28;20055;-66
2022/03/15 02:42:33;;;;;;;24.98;12.80;;;3.50;99.90;;;;;;5088028;28;20394;-66
2022/03/15 02:44:59;;;;;;;24.05;13.38;;;3.50;99.90;;;;;;5091267;28;20028;-67
2022/03/15 02:47:24;;;;;;;25.05;12.40;;;3.50;99.90;;;;;;5089913;28;20088;-68
2022/03/15 02:49:50;;;;;;;24.13;11.68;;;3.40;99.90;;;;;;5088599;28;20024;-69
2022/03/15 02:52:17;;;;;;;19.95;11.32;;;3.40;99.90;;;;;;5084590;28;20024;-68
2022/03/15 02:54:42;;;;;;;22.05;11.70;;;3.40;99.90;;;;;;5090300;28;20579;-65
2022/03/15 02:57:10;;;;;;;22.10;11.52;;;3.40;99.90;;;;;;5088438;28;20035;-65
2022/03/15 02:59:39;;;;;;;21.83;11.73;;;3.40;99.90;;;;;;5093963;28;20041;-65
2022/03/15 03:02:05;;;;;;;23.00;13.45;;;3.30;99.90;;;;;;5098831;28;20103;-65
2022/03/15 03:04:31;;;;;;;22.40;12.65;;;3.30;99.90;;;;;;5090018;28;20132;-66
2022/03/15 03:06:59;;;;;;;25.42;13.38;;;3.20;99.90;;;;;;5082413;28;20409;-65
2022/03/15 03:09:24;;;;;;;26.00;14.05;;;3.30;99.90;;;;;;5088667;28;20046;-65
2022/03/15 03:11:50;;;;;;;27.35;15.35;;;3.30;99.90;;;;;;5093093;28;20090;-66
2022/03/15 03:14:18;;;;;;;25.25;14.23;;;3.40;99.90;;;;;;5091564;28;20036;-65
2022/03/15 03:16:43;;;;;;;24.85;14.20;;;3.30;99.90;;;;;;5096350;28;20027;-66
2022/03/15 03:19:09;;;;;;;26.77;15.15;;;3.20;99.90;;;;;;5094707;28;20070;-66
2022/03/15 03:21:36;;;;;;;25.73;13.80;;;3.20;99.90;;;;;;5095776;28;20061;-66
2022/03/15 03:24:06;;;;;;;26.25;13.52;;;3.20;99.90;;;;;;5099003;28;20111;-65
2022/03/15 03:26:37;;;;;;;25.92;13.30;;;3.20;99.90;;;;;;5101898;28;20126;-66
2022/03/15 03:29:10;;;;;;;24.27;13.77;;;3.10;99.90;;;;;;5086586;28;20122;-66
2022/03/15 03:31:46;;;;;;;22.83;12.90;;;3.10;99.90;;;;;;5075099;28;20030;-66
2022/03/15 03:34:12;;;;;;;22.90;14.10;;;3.20;99.90;;;;;;5097389;28;20530;-66
2022/03/15 03:36:39;;;;;;;24.88;13.80;;;3.20;99.90;;;;;;5093058;28;20088;-66
2022/03/15 03:39:06;;;;;;;26.98;14.55;;;3.30;99.90;;;;;;5092452;28;20020;-66
2022/03/15 03:41:32;;;;;;;29.85;14.55;;;3.30;99.90;;;;;;5090324;28;20021;-66
2022/03/15 03:43:57;;;;;;;29.33;14.95;;;3.40;99.90;;;;;;5097796;28;20039;-66
2022/03/15 03:46:23;;;;;;;28.70;16.02;;;3.50;99.90;;;;;;5089972;28;20054;-66
2022/03/15 03:48:52;;;;;;;21.65;12.77;;;3.50;99.90;;;;;;5092608;28;20039;-66
2022/03/15 03:51:18;;;;;;;24.65;13.93;;;3.50;99.90;;;;;;5091084;28;20044;-66
2022/03/15 03:53:44;;;;;;;27.17;14.60;;;3.50;99.90;;;;;;5078071;28;20024;-66
2022/03/15 03:56:10;;;;;;;28.45;15.05;;;3.50;99.90;;;;;;5097004;28;20032;-66
2022/03/15 03:58:36;;;;;;;29.23;16.30;;;3.60;99.90;;;;;;5093429;28;20020;-65
2022/03/15 04:01:02;;;;;;;28.35;15.70;;;3.70;99.90;;;;;;5088985;28;20085;-65
2022/03/15 04:03:29;;;;;;;29.40;15.68;;;3.70;99.90;;;;;;5088407;28;20067;-66
2022/03/15 04:05:56;;;;;;;28.63;15.18;;;3.70;99.90;;;;;;5091125;28;20039;-65
2022/03/15 04:08:22;;;;;;;28.30;15.27;;;3.70;99.90;;;;;;5089773;28;20090;-66
2022/03/15 04:10:49;;;;;;;26.45;14.15;;;3.80;99.90;;;;;;5097159;28;20048;-66
2022/03/15 04:13:18;;;;;;;26.40;13.90;;;3.70;99.90;;;;;;5086775;28;20056;-66
2022/03/15 04:15:49;;;;;;;27.42;13.73;;;3.70;99.90;;;;;;5086911;28;20024;-66
2022/03/15 04:18:15;;;;;;;23.92;13.20;;;3.70;99.90;;;;;;5089650;28;20032;-66
2022/03/15 04:20:42;;;;;;;23.48;13.43;;;3.70;99.90;;;;;;5093263;28;20111;-66
2022/03/15 04:23:11;;;;;;;24.88;13.52;;;3.80;99.90;;;;;;5092886;28;20017;-66
2022/03/15 04:25:38;;;;;;;28.67;14.25;;;3.80;99.90;;;;;;5094861;28;20094;-68
2022/03/15 04:28:04;;;;;;;24.27;13.32;;;3.70;99.90;;;;;;5102000;28;20055;-66
2022/03/15 04:30:31;;;;;;;31.10;16.27;;;3.80;99.90;;;;;;5094999;28;20032;-66
2022/03/15 04:33:01;;;;;;;24.30;15.13;;;3.80;99.90;;;;;;5097377;28;20032;-66
2022/03/15 04:35:27;;;;;;;26.35;14.07;;;3.90;99.90;;;;;;5098669;28;20021;-66
2022/03/15 04:37:54;;;;;;;30.70;15.60;;;3.90;99.90;;;;;;5099077;28;20024;-66
2022/03/15 04:40:21;;;;;;;24.30;14.43;;;3.90;99.90;;;;;;5097586;28;20046;-66
2022/03/15 04:42:48;;;;;;;29.98;15.32;;;3.90;99.90;;;;;;5092094;28;20009;-66
2022/03/15 04:45:14;;;;;;;29.35;16.25;;;4.00;99.90;;;;;;5104057;28;20042;-66
2022/03/15 04:47:40;;;;;;;32.28;17.73;;;4.00;99.90;;;;;;5090759;28;20040;-66
2022/03/15 04:50:07;;;;;;;32.58;17.30;;;4.10;99.90;;;;;;5096236;28;20020;-67
2022/03/15 04:52:34;;;;;;;33.67;18.60;;;4.10;99.90;;;;;;5099178;28;20028;-66
2022/03/15 04:55:00;;;;;;;37.30;19.38;;;4.10;99.90;;;;;;5099136;28;20293;-66
2022/03/15 04:57:26;;;;;;;38.85;18.67;;;4.10;99.90;;;;;;5099178;28;20117;-66
2022/03/15 04:59:52;;;;;;;36.60;18.48;;;4.20;99.90;;;;;;5082684;28;20035;-66
2022/03/15 05:02:18;;;;;;;34.00;19.17;;;4.20;99.90;;;;;;5095276;28;20027;-66
2022/03/15 05:04:43;;;;;;;40.80;19.17;;;4.20;99.90;;;;;;5086549;28;20029;-66
2022/03/15 05:07:09;;;;;;;38.42;20.42;;;4.20;99.90;;;;;;5091728;28;20084;-66
2022/03/15 05:11:05;;;;;;;39.13;20.65;;;4.20;99.90;;;;;;5095615;28;20493;-66
2022/03/15 05:12:21;;;;;;;38.58;20.50;;;4.30;99.90;;;;;;5103686;28;20115;-66
2022/03/15 05:14:47;;;;;;;39.70;19.13;;;4.30;99.90;;;;;;5092762;28;20040;-66
2022/03/15 05:17:13;;;;;;;39.28;21.75;;;4.30;99.90;;;;;;5092631;28;20032;-66
2022/03/15 05:19:38;;;;;;;47.63;21.08;;;4.30;99.90;;;;;;5096346;28;20024;-66
2022/03/15 05:22:04;;;;;;;46.47;21.85;;;4.30;99.90;;;;;;5094907;28;20027;-67
2022/03/15 05:24:29;;;;;;;37.70;20.85;;;4.30;99.90;;;;;;5080468;28;20439;-66
2022/03/15 05:26:57;;;;;;;44.65;22.13;;;4.30;99.90;;;;;;5096978;28;20050;-66
2022/03/15 05:29:24;;;;;;;36.45;20.08;;;4.30;99.90;;;;;;5093453;28;20040;-66
2022/03/15 05:31:49;;;;;;;37.13;20.73;;;4.40;99.90;;;;;;5117269;27;20024;-66
2022/03/15 05:34:17;;;;;;;37.42;21.05;;;4.40;99.90;;;;;;5092072;28;20103;-66
2022/03/15 05:36:43;;;;;;;39.55;21.33;;;4.30;99.90;;;;;;5093782;28;20063;-66
2022/03/15 05:39:09;;;;;;;49.17;24.02;;;4.30;99.90;;;;;;5085444;28;20016;-66
2022/03/15 05:41:35;;;;;;;50.90;26.48;;;4.30;99.90;;;;;;5103348;28;20028;-66
2022/03/15 05:44:01;;;;;;;43.90;23.95;;;4.40;99.90;;;;;;5097550;28;20032;-66
2022/03/15 05:46:26;;;;;;;55.03;26.73;;;4.40;99.90;;;;;;5080542;28;20061;-66
2022/03/15 05:48:52;;;;;;;47.15;25.50;;;4.50;99.90;;;;;;5092684;28;20084;-66
2022/03/15 05:51:18;;;;;;;45.13;23.50;;;4.50;99.90;;;;;;5091340;28;20043;-66
2022/03/15 05:53:44;;;;;;;46.30;23.75;;;4.50;99.90;;;;;;5095088;28;20040;-66
2022/03/15 05:56:11;;;;;;;45.60;24.83;;;4.50;99.90;;;;;;5090353;28;20035;-66
2022/03/15 05:58:37;;;;;;;52.97;26.75;;;4.50;99.90;;;;;;5088828;28;20032;-66
2022/03/15 06:01:03;;;;;;;53.20;26.90;;;4.60;99.90;;;;;;5089583;28;20020;-66
2022/03/15 06:03:29;;;;;;;48.65;24.95;;;4.60;99.90;;;;;;5090604;28;20100;-66
2022/03/15 06:05:54;;;;;;;53.08;25.67;;;4.60;99.90;;;;;;5083981;28;20025;-66
2022/03/15 06:08:20;;;;;;;48.42;26.45;;;4.70;99.90;;;;;;5079349;28;20040;-66
2022/03/15 06:10:46;;;;;;;56.10;28.25;;;4.70;99.90;;;;;;5092960;28;20172;-66
2022/03/15 06:13:12;;;;;;;53.63;26.83;;;4.80;99.90;;;;;;5097871;28;20048;-66
2022/03/15 06:15:38;;;;;;;55.80;27.30;;;4.80;99.90;;;;;;5093942;28;20754;-66
2022/03/15 06:18:05;;;;;;;55.55;27.65;;;4.80;99.90;;;;;;5097835;28;20350;-67
2022/03/15 06:20:30;;;;;;;50.50;27.00;;;4.90;99.90;;;;;;5090071;28;20029;-67
2022/03/15 06:22:58;;;;;;;59.08;30.25;;;4.90;99.90;;;;;;5095692;28;20043;-67
2022/03/15 06:25:24;;;;;;;54.75;28.00;;;4.90;99.90;;;;;;5087054;28;20052;-67
2022/03/15 06:27:50;;;;;;;56.58;28.45;;;5.00;99.90;;;;;;5099112;28;20068;-67
2022/03/15 06:30:17;;;;;;;57.25;29.70;;;5.10;99.90;;;;;;5092675;28;20035;-67
2022/03/15 06:32:43;;;;;;;58.83;29.10;;;5.10;99.90;;;;;;5084249;28;20060;-67
2022/03/15 06:35:10;;;;;;;54.35;28.25;;;5.20;99.90;;;;;;5087323;28;20020;-67
2022/03/15 06:37:39;;;;;;;58.55;29.02;;;5.10;99.90;;;;;;5088371;28;20020;-68
2022/03/15 06:40:09;;;;;;;58.60;30.08;;;5.20;99.90;;;;;;5092875;28;20039;-67
2022/03/15 06:42:35;;;;;;;57.47;29.25;;;5.20;99.90;;;;;;5090080;28;20027;-67
2022/03/15 06:45:01;;;;;;;53.92;28.92;;;5.30;99.90;;;;;;5085629;28;20130;-67
2022/03/15 06:47:27;;;;;;;52.55;28.38;;;5.30;99.90;;;;;;5084525;28;20433;-67
2022/03/15 06:49:52;;;;;;;57.10;29.08;;;5.30;99.90;;;;;;5088528;28;20020;-67
2022/03/15 06:52:19;;;;;;;51.33;27.85;;;5.30;99.90;;;;;;5078270;28;20025;-67
2022/03/15 06:54:44;;;;;;;54.22;27.95;;;5.40;99.90;;;;;;5088206;28;20029;-67
2022/03/15 06:57:10;;;;;;;54.78;27.30;;;5.40;99.90;;;;;;5090799;28;20021;-67
2022/03/15 06:59:36;;;;;;;58.15;29.58;;;5.40;99.90;;;;;;5090525;28;20039;-68
2022/03/15 07:02:01;;;;;;;54.40;28.25;;;5.50;99.90;;;;;;5091790;28;20028;-67
2022/03/15 07:04:27;;;;;;;55.92;28.27;;;5.50;99.90;;;;;;5092872;28;20024;-67
2022/03/15 07:06:53;;;;;;;50.22;26.85;;;5.50;99.90;;;;;;5092879;28;20117;-67
2022/03/15 07:09:18;;;;;;;51.40;27.65;;;5.60;99.90;;;;;;5093462;28;20045;-67
2022/03/15 07:11:44;;;;;;;58.88;29.10;;;5.60;99.90;;;;;;5092478;28;20040;-67
2022/03/15 07:14:10;;;;;;;52.17;27.58;;;5.70;99.90;;;;;;5093936;28;20048;-66
2022/03/15 07:16:35;;;;;;;56.05;28.67;;;5.60;99.90;;;;;;5094125;28;20110;-67
2022/03/15 07:19:01;;;;;;;51.85;26.92;;;5.70;99.90;;;;;;5092378;28;20539;-66
2022/03/15 07:21:27;;;;;;;50.22;26.75;;;5.80;99.90;;;;;;5091653;28;20028;-67
2022/03/15 07:23:52;;;;;;;53.10;27.58;;;5.90;99.90;;;;;;5089576;28;20032;-66
2022/03/15 07:26:18;;;;;;;53.33;27.75;;;5.90;99.90;;;;;;5077104;28;20516;-68
2022/03/15 07:28:44;;;;;;;51.55;27.77;;;6.00;99.90;;;;;;5095808;28;20104;-67
2022/03/15 07:31:10;;;;;;;57.63;28.05;;;6.00;99.90;;;;;;5087052;28;20021;-67
2022/03/15 07:33:35;;;;;;;54.15;27.75;;;6.00;99.90;;;;;;5095324;28;20020;-67
2022/03/15 07:36:01;;;;;;;50.58;28.40;;;6.10;99.90;;;;;;5090168;28;20024;-67
2022/03/15 07:38:28;;;;;;;53.88;27.88;;;6.20;99.90;;;;;;5087883;28;20044;-67
2022/03/15 07:40:54;;;;;;;52.53;28.63;;;6.20;99.90;;;;;;5074392;28;20456;-68
2022/03/15 07:43:23;;;;;;;51.60;27.17;;;6.20;99.90;;;;;;5076299;28;20059;-67
2022/03/15 07:45:49;;;;;;;49.53;27.20;;;6.30;99.90;;;;;;5095454;28;20363;-67
2022/03/15 07:48:16;;;;;;;51.85;27.17;;;6.30;99.90;;;;;;5087317;28;20097;-67
2022/03/15 07:50:41;;;;;;;47.05;28.23;;;6.30;99.90;;;;;;5085990;28;20024;-68
2022/03/15 07:53:07;;;;;;;47.65;27.30;;;6.40;99.90;;;;;;5098293;28;20024;-67
2022/03/15 07:55:34;;;;;;;47.28;27.38;;;6.40;99.90;;;;;;5090472;28;20091;-68
2022/03/15 07:58:00;;;;;;;47.08;26.15;;;6.40;99.90;;;;;;5082987;28;20032;-68
2022/03/15 08:00:25;;;;;;;46.67;27.20;;;6.40;99.90;;;;;;5090650;28;20026;-66
2022/03/15 08:02:52;;;;;;;48.25;26.75;;;6.40;99.90;;;;;;5099730;28;20024;-66
2022/03/15 08:05:18;;;;;;;45.53;25.48;;;6.50;99.90;;;;;;5092551;28;20084;-71
2022/03/15 08:07:44;;;;;;;50.55;26.90;;;6.50;99.90;;;;;;5087854;28;20028;-67
2022/03/15 08:10:10;;;;;;;47.03;28.08;;;6.50;99.90;;;;;;5090142;28;20028;-67
2022/03/15 08:12:37;;;;;;;48.00;27.02;;;6.50;99.90;;;;;;5089865;28;20468;-67
2022/03/15 08:15:04;;;;;;;50.78;27.35;;;6.60;99.90;;;;;;5095375;28;20768;-66
2022/03/15 08:17:30;;;;;;;49.20;29.77;;;6.60;99.90;;;;;;5097387;28;20017;-65
2022/03/15 08:19:57;;;;;;;49.92;28.83;;;6.60;99.90;;;;;;5105308;28;20063;-65
2022/03/15 08:22:23;;;;;;;50.45;28.42;;;6.60;99.90;;;;;;5105105;28;20039;-66
2022/03/15 08:24:49;;;;;;;53.08;30.25;;;6.60;99.90;;;;;;5104528;28;20390;-67
2022/03/15 08:27:15;;;;;;;53.95;29.80;;;6.70;99.90;;;;;;5095269;28;21468;-66
2022/03/15 08:29:41;;;;;;;54.15;30.45;;;6.70;99.90;;;;;;5104114;28;20040;-66
2022/03/15 08:32:06;;;;;;;55.65;31.67;;;6.70;99.90;;;;;;5104224;28;20016;-67
2022/03/15 08:34:33;;;;;;;53.30;31.27;;;6.70;99.90;;;;;;5101535;28;20055;-67
2022/03/15 08:36:58;;;;;;;53.17;31.08;;;6.70;99.90;;;;;;5100301;28;20031;-66
2022/03/15 08:39:24;;;;;;;48.03;29.33;;;6.80;99.90;;;;;;5103973;28;20032;-67
2022/03/15 08:41:53;;;;;;;51.78;29.73;;;6.80;99.90;;;;;;5104837;28;20024;-66
2022/03/15 08:44:20;;;;;;;50.55;29.50;;;6.90;99.90;;;;;;5104092;28;20564;-66
2022/03/15 08:46:47;;;;;;;53.72;29.58;;;7.00;99.90;;;;;;5100348;28;20438;-66
2022/03/15 08:49:14;;;;;;;53.53;29.58;;;7.00;99.90;;;;;;5083934;28;20047;-67
2022/03/15 08:51:40;;;;;;;49.80;29.40;;;7.10;99.90;;;;;;5103707;28;20017;-67
2022/03/15 08:54:05;;;;;;;48.28;28.40;;;7.10;99.90;;;;;;5103954;28;20020;-67
2022/03/15 08:56:32;;;;;;;49.42;29.42;;;7.20;99.90;;;;;;5100510;28;20035;-67
2022/03/15 08:58:57;;;;;;;48.20;28.23;;;7.20;99.90;;;;;;5101244;28;20051;-65
2022/03/15 09:01:23;;;;;;;48.80;28.90;;;7.20;99.90;;;;;;5090658;28;20037;-65
2022/03/15 09:03:50;;;;;;;47.22;27.85;;;7.30;99.90;;;;;;5083282;28;20028;-66
2022/03/15 09:06:15;;;;;;;43.60;27.90;;;7.30;99.90;;;;;;5088420;28;20379;-66
2022/03/15 09:08:41;;;;;;;47.03;28.38;;;7.40;99.90;;;;;;5102132;28;20075;-66
2022/03/15 09:11:08;;;;;;;48.13;28.27;;;7.40;99.90;;;;;;5102968;28;20024;-66
2022/03/15 09:13:35;;;;;;;45.17;28.30;;;7.40;99.90;;;;;;5101145;28;20052;-66
2022/03/15 09:16:01;;;;;;;47.35;28.25;;;7.40;99.90;;;;;;5104233;28;20034;-66
2022/03/15 09:18:27;;;;;;;46.63;28.08;;;7.40;99.90;;;;;;5103073;28;20036;-66
2022/03/15 09:20:53;;;;;;;47.53;28.38;;;7.50;99.90;;;;;;5103360;28;20058;-66
2022/03/15 09:23:20;;;;;;;48.42;27.55;;;7.50;99.90;;;;;;5103093;28;20024;-66
2022/03/15 09:25:47;;;;;;;48.97;29.42;;;7.60;99.90;;;;;;5102769;28;20039;-66
2022/03/15 09:28:13;;;;;;;47.05;28.52;;;7.70;99.90;;;;;;5088995;28;20047;-67
2022/03/15 09:30:39;;;;;;;46.75;29.30;;;7.80;99.90;;;;;;5082914;28;20056;-66
2022/03/15 09:33:05;;;;;;;42.60;26.88;;;7.80;99.90;;;;;;5083948;28;20032;-66
2022/03/15 09:35:31;;;;;;;48.58;28.27;;;7.90;99.90;;;;;;5089297;28;20020;-66
2022/03/15 09:37:57;;;;;;;48.55;29.08;;;7.80;99.90;;;;;;5092151;28;20032;-66
2022/03/15 09:40:25;;;;;;;46.90;28.15;;;7.80;99.90;;;;;;5103191;28;20031;-66
2022/03/15 09:42:58;;;;;;;47.15;26.92;;;7.90;99.90;;;;;;5102467;28;20020;-66
2022/03/15 09:45:24;;;;;;;44.17;27.67;;;7.90;99.90;;;;;;5100919;28;20091;-66
2022/03/15 09:47:59;;;;;;;45.00;26.48;;;7.90;99.90;;;;;;5092507;28;20052;-67
2022/03/15 09:50:25;;;;;;;43.95;27.17;;;7.90;99.90;;;;;;5083215;28;20050;-66
2022/03/15 09:52:55;;;;;;;43.75;27.95;;;8.00;99.90;;;;;;5083798;28;20036;-66
2022/03/15 09:55:21;;;;;;;50.08;29.20;;;8.10;99.90;;;;;;5081979;28;20033;-66
2022/03/15 09:57:47;;;;;;;52.75;29.27;;;8.10;99.90;;;;;;5100999;28;20020;-66
2022/03/15 10:00:15;;;;;;;41.33;27.02;;;8.10;99.90;;;;;;5081259;28;20035;-66
2022/03/15 10:02:45;;;;;;;42.42;27.48;;;8.20;99.90;;;;;;5083565;28;20025;-66
2022/03/15 10:05:12;;;;;;;47.75;28.35;;;8.30;99.90;;;;;;5082779;28;20381;-65
2022/03/15 10:07:38;;;;;;;49.55;28.20;;;8.30;99.90;;;;;;5083194;28;20030;-66
2022/03/15 10:10:10;;;;;;;41.92;25.67;;;8.40;99.90;;;;;;5096965;28;20024;-66
2022/03/15 10:12:36;;;;;;;41.47;25.70;;;8.40;99.90;;;;;;5081563;28;20059;-66
2022/03/15 10:15:21;;;;;;;41.83;25.30;;;8.60;99.90;;;;;;5065647;28;20031;-66
2022/03/15 10:17:54;;;;;;;42.33;26.17;;;8.60;99.90;;;;;;5082963;28;20021;-66
2022/03/15 10:20:25;;;;;;;40.60;25.67;;;8.60;99.90;;;;;;5084929;28;20033;-66
2022/03/15 10:22:57;;;;;;;44.75;26.95;;;8.70;99.90;;;;;;5082857;28;20444;-66
2022/03/15 10:25:25;;;;;;;41.65;25.85;;;8.80;99.90;;;;;;5100367;28;20549;-66
2022/03/15 10:28:03;;;;;;;49.92;26.05;;;8.80;99.90;;;;;;5103577;28;20108;-66
2022/03/15 10:30:30;;;;;;;42.78;25.92;;;9.20;99.90;;;;;;5097000;28;20559;-66
2022/03/15 10:32:57;;;;;;;41.30;25.67;;;9.50;99.90;;;;;;5103275;28;20020;-66
2022/03/15 10:35:25;;;;;;;38.22;24.90;;;9.60;99.90;;;;;;5102329;28;20043;-66
2022/03/15 10:37:52;;;;;;;39.33;23.73;;;9.70;99.90;;;;;;5102128;28;20189;-66
2022/03/15 10:40:18;;;;;;;38.80;23.55;;;9.90;99.90;;;;;;5092713;28;20028;-66
2022/03/15 10:42:47;;;;;;;38.30;24.30;;;10.00;99.90;;;;;;5082076;28;20124;-66
2022/03/15 10:45:22;;;;;;;38.72;24.15;;;10.00;99.90;;;;;;5082973;28;20461;-66
2022/03/15 10:47:53;;;;;;;37.28;23.05;;;10.20;99.90;;;;;;5080125;28;20029;-66
2022/03/15 10:50:20;;;;;;;37.28;23.00;;;10.10;99.90;;;;;;5081955;28;20025;-67
2022/03/15 10:52:47;;;;;;;35.17;21.27;;;10.00;99.90;;;;;;5083617;28;20132;-66
2022/03/15 10:55:20;;;;;;;35.97;20.85;;;10.10;99.90;;;;;;5097985;28;20427;-67
2022/03/15 10:57:53;;;;;;;33.88;21.40;;;10.20;99.90;;;;;;5097140;28;20132;-66
2022/03/15 11:00:35;;;;;;;36.00;22.88;;;10.30;99.90;;;;;;5083629;28;20039;-66
2022/03/15 11:03:02;;;;;;;;;;;10.30;99.90;;;;;;5100228;28;20016;-67
2022/03/15 11:05:36;;;;;;;36.58;19.73;;;10.30;99.90;;;;;;5082002;28;19916;-66
2022/03/15 11:08:06;;;;;;;31.45;18.60;;;10.40;99.90;;;;;;5094609;28;20032;-67
2022/03/15 11:10:32;;;;;;;31.27;19.90;;;10.60;99.90;;;;;;5092762;28;20044;-67
2022/03/15 11:13:17;;;;;;;29.27;19.42;;;10.60;99.90;;;;;;5092538;28;20052;-66
2022/03/15 11:15:46;;;;;;;30.73;18.75;;;10.80;99.90;;;;;;5098725;28;20034;-66
2022/03/15 11:18:13;;;;;;;34.03;18.38;;;11.00;99.90;;;;;;5089341;28;20100;-67
2022/03/15 11:20:42;;;;;;;27.17;17.35;;;11.10;99.90;;;;;;5086482;28;20405;-66
2022/03/15 11:23:10;;;;;;;26.70;17.45;;;11.30;99.90;;;;;;5097181;28;20020;-66
2022/03/15 11:25:37;;;;;;;27.77;17.08;;;11.20;99.90;;;;;;5085583;28;20036;-66
2022/03/15 11:28:06;;;;;;;25.52;15.75;;;11.50;99.90;;;;;;5096617;28;20036;-67
2022/03/15 11:30:32;;;;;;;26.98;16.67;;;11.50;99.90;;;;;;5090952;28;20020;-68
2022/03/15 11:33:02;;;;;;;29.35;16.80;;;11.60;99.90;;;;;;5096415;28;20047;-68
2022/03/15 11:35:31;;;;;;;26.30;15.05;;;11.60;99.90;;;;;;5101037;28;20024;-68
2022/03/15 11:37:59;;;;;;;23.50;15.55;;;11.50;99.90;;;;;;5092468;28;20028;-68
2022/03/15 11:40:25;;;;;;;24.17;14.63;;;11.60;99.90;;;;;;5102867;28;20028;-68
2022/03/15 11:42:57;;;;;;;27.15;16.00;;;11.70;99.90;;;;;;5100347;28;20047;-69
2022/03/15 11:45:44;;;;;;;27.98;16.58;;;11.60;99.90;;;;;;5090530;28;20431;-68
2022/03/15 11:48:41;;;;;;;25.77;16.33;;;11.60;99.90;;;;;;5093456;28;20120;-68
2022/03/15 11:51:36;;;;;;;28.60;16.17;;;11.70;99.90;;;;;;5095340;28;20028;-67
2022/03/15 11:54:26;;;;;;;23.95;14.70;;;11.40;99.90;;;;;;5090231;28;20032;-67
2022/03/15 11:57:03;;;;;;;25.83;15.95;;;11.40;99.90;;;;;;5093507;28;20036;-67
2022/03/15 11:59:45;;;;;;;27.70;16.48;;;11.40;99.90;;;;;;5096569;28;20028;-67
2022/03/15 12:02:11;;;;;;;24.33;15.65;;;11.20;99.90;;;;;;5101142;28;20036;-67
2022/03/15 12:04:44;;;;;;;24.95;15.10;;;11.10;99.90;;;;;;5077706;28;20067;-68
2022/03/15 12:07:11;;;;;;;26.35;15.10;;;11.10;99.90;;;;;;5093848;28;20035;-67
2022/03/15 12:09:47;;;;;;;28.55;15.05;;;11.30;99.90;;;;;;5099250;28;20419;-67
2022/03/15 12:12:12;;;;;;;25.17;15.18;;;11.30;99.90;;;;;;5099488;28;20036;-68
2022/03/15 12:14:45;;;;;;;27.40;15.73;;;11.40;99.90;;;;;;5112934;28;20040;-67
2022/03/15 12:17:12;;;;;;;24.02;15.30;;;11.40;99.90;;;;;;5098890;28;20368;-67
2022/03/15 12:19:49;;;;;;;23.65;15.43;;;11.40;99.90;;;;;;5070415;28;20035;-67
2022/03/15 12:22:36;;;;;;;24.75;15.43;;;11.50;99.90;;;;;;5094086;28;20020;-68
2022/03/15 12:25:04;;;;;;;30.10;16.55;;;11.60;99.90;;;;;;5095184;28;20051;-67
2022/03/15 12:27:29;;;;;;;27.38;15.63;;;11.60;99.90;;;;;;5105267;28;20099;-67
2022/03/15 12:29:58;;;;;;;23.48;14.18;;;11.60;99.90;;;;;;5096561;28;20055;-68
2022/03/15 12:32:25;;;;;;;21.92;14.45;;;11.60;99.90;;;;;;5103460;28;20048;-67
2022/03/15 12:34:56;;;;;;;25.20;14.05;;;11.60;99.90;;;;;;5091514;28;20032;-68
2022/03/15 12:37:36;;;;;;;25.77;14.48;;;11.70;99.90;;;;;;5101979;28;20104;-67